createdAt,value
2023-05-22T00:00:14.759Z,70.01
2023-05-22T00:02:43.430Z,71.27
2023-05-22T00:05:14.268Z,71.21
2023-05-22T00:07:43.167Z,69.42
2023-05-22T00:10:10.767Z,70.06
2023-05-22T00:12:37.394Z,70.26
2023-05-22T00:15:05.371Z,70.58
2023-05-22T00:17:31.924Z,70.63
2023-05-22T00:20:07.317Z,71.29
2023-05-22T00:22:43.149Z,70.62
2023-05-22T00:25:11.501Z,70.25
2023-05-22T00:27:38.289Z,71.16
2023-05-22T00:30:05.223Z,70.34
2023-05-22T00:32:31.810Z,70.75
2023-05-22T00:34:58.515Z,71.63
2023-05-22T00:37:28.491Z,71.25
2023-05-22T00:39:55.042Z,71.81
2023-05-22T00:42:22.199Z,71.89
2023-05-22T00:44:51.524Z,71.06
2023-05-22T00:47:18.988Z,70.84
2023-05-22T00:49:48.172Z,70.51
2023-05-22T00:52:14.686Z,69.66
2023-05-22T00:54:49.115Z,70.12
2023-05-22T00:57:18.965Z,71.04
2023-05-22T00:59:45.533Z,70.56
2023-05-22T01:02:16.745Z,71.87
2023-05-22T01:04:51.049Z,72.02
2023-05-22T01:07:17.992Z,72.17
2023-05-22T01:09:44.641Z,73.11
2023-05-22T01:12:19.606Z,72.94
2023-05-22T01:14:51.291Z,73.21
2023-05-22T01:17:34.803Z,73.54
2023-05-22T01:20:20.320Z,73.35
2023-05-22T01:23:02.921Z,72.76
2023-05-22T01:25:40.304Z,72.33
2023-05-22T01:28:36.713Z,72.05
2023-05-22T01:31:08.273Z,71.91
2023-05-22T01:33:42.809Z,71.56
2023-05-22T01:36:10.378Z,71.65
2023-05-22T01:38:40.351Z,71.51
2023-05-22T01:41:07.613Z,70.68
2023-05-22T01:43:34.918Z,71.17
2023-05-22T01:46:01.988Z,71.24
2023-05-22T01:48:28.607Z,71.08
2023-05-22T01:51:01.063Z,71.43
2023-05-22T01:53:36.612Z,71.27
2023-05-22T01:56:14.714Z,71.17
2023-05-22T01:58:47.382Z,71.36
2023-05-22T02:01:21.273Z,71.44
2023-05-22T02:03:51.892Z,71.34
2023-05-22T02:06:19.479Z,71.11
2023-05-22T02:08:46.074Z,70.80
2023-05-22T02:11:12.736Z,70.76
2023-05-22T02:13:45.292Z,71.22
2023-05-22T02:16:12.572Z,71.27
2023-05-22T02:18:42.043Z,71.05
2023-05-22T02:21:08.862Z,70.96
2023-05-22T02:23:35.898Z,71.57
2023-05-22T02:26:06.964Z,71.10
2023-05-22T02:28:33.599Z,71.53
2023-05-22T02:31:05.447Z,71.13
2023-05-22T02:33:32.075Z,71.66
2023-05-22T02:36:05.529Z,71.72
2023-05-22T02:38:32.194Z,71.77
2023-05-22T02:40:59.260Z,71.10
2023-05-22T02:43:25.875Z,71.68
2023-05-22T02:45:52.631Z,71.89
2023-05-22T02:48:19.370Z,71.86
2023-05-22T02:50:48.534Z,71.56
2023-05-22T02:53:17.236Z,71.56
2023-05-22T02:55:43.887Z,72.16
2023-05-22T02:58:11.791Z,72.75
2023-05-22T03:00:41.977Z,72.62
2023-05-22T03:03:08.859Z,72.01
2023-05-22T03:05:35.450Z,72.64
2023-05-22T03:08:02.115Z,71.56
2023-05-22T03:10:28.932Z,71.44
2023-05-22T03:12:55.524Z,71.85
2023-05-22T03:15:22.018Z,72.94
2023-05-22T03:18:02.019Z,73.04
2023-05-22T03:20:31.991Z,73.03
2023-05-22T03:22:59.140Z,73.86
2023-05-22T03:25:29.302Z,72.55
2023-05-22T03:27:56.459Z,72.88
2023-05-22T03:30:29.972Z,73.05
2023-05-22T03:32:56.604Z,73.41
2023-05-22T03:35:24.961Z,73.57
2023-05-22T03:37:51.514Z,73.83
2023-05-22T03:40:18.034Z,73.15
2023-05-22T03:42:44.573Z,74.04
2023-05-22T03:45:15.568Z,74.10
2023-05-22T03:47:42.381Z,73.94
2023-05-22T03:50:15.808Z,73.90
2023-05-22T03:52:42.314Z,74.23
2023-05-22T03:55:09.120Z,73.98
2023-05-22T03:57:35.845Z,73.95
2023-05-22T04:00:09.904Z,74.14
2023-05-22T04:02:39.013Z,74.45
2023-05-22T04:05:07.187Z,74.26
2023-05-22T04:07:37.842Z,74.50
2023-05-22T04:10:04.976Z,74.63
2023-05-22T04:12:31.959Z,74.02
2023-05-22T04:15:07.619Z,74.24
2023-05-22T04:17:40.443Z,74.21
2023-05-22T04:20:07.940Z,74.35
2023-05-22T04:22:34.614Z,73.92
2023-05-22T04:25:01.442Z,74.14
2023-05-22T04:27:30.380Z,74.35
2023-05-22T04:29:57.024Z,74.29
2023-05-22T04:32:27.014Z,73.79
2023-05-22T04:34:53.596Z,74.18
2023-05-22T04:37:23.619Z,74.72
2023-05-22T04:39:53.738Z,74.30
2023-05-22T04:42:20.590Z,74.34
2023-05-22T04:44:49.548Z,74.38
2023-05-22T04:47:17.718Z,73.51
2023-05-22T04:49:45.731Z,73.42
2023-05-22T04:52:12.319Z,73.23
2023-05-22T04:54:39.036Z,73.10
2023-05-22T04:57:06.057Z,73.48
2023-05-22T04:59:33.843Z,73.72
2023-05-22T05:02:00.592Z,72.84
2023-05-22T05:04:27.084Z,73.38
2023-05-22T05:06:53.788Z,73.40
2023-05-22T05:09:21.087Z,72.76
2023-05-22T05:11:47.701Z,72.47
2023-05-22T05:14:16.521Z,72.44
2023-05-22T05:16:46.985Z,72.20
2023-05-22T05:19:14.118Z,71.85
2023-05-22T05:21:48.479Z,71.76
2023-05-22T05:24:18.350Z,71.56
2023-05-22T05:26:44.995Z,72.00
2023-05-22T05:29:12.980Z,72.36
2023-05-22T05:31:39.737Z,72.25
2023-05-22T05:34:06.359Z,71.92
2023-05-22T05:36:32.901Z,71.54
2023-05-22T05:39:04.076Z,70.82
2023-05-22T05:41:30.757Z,71.12
2023-05-22T05:44:00.094Z,70.55
2023-05-22T05:46:26.888Z,71.04
2023-05-22T05:48:53.639Z,71.03
2023-05-22T05:51:23.597Z,71.53
2023-05-22T05:53:51.673Z,71.55
2023-05-22T05:56:18.309Z,70.44
2023-05-22T05:58:44.935Z,70.82
2023-05-22T06:01:20.185Z,70.75
2023-05-22T06:03:47.557Z,71.05
2023-05-22T06:06:15.481Z,71.24
2023-05-22T06:08:42.442Z,71.47
2023-05-22T06:11:15.641Z,71.52
2023-05-22T06:13:49.459Z,71.84
2023-05-22T06:16:16.759Z,71.35
2023-05-22T06:18:49.744Z,70.76
2023-05-22T06:21:22.233Z,70.47
2023-05-22T06:23:49.885Z,69.80
2023-05-22T06:26:21.646Z,69.82
2023-05-22T06:28:48.390Z,69.45
2023-05-22T06:31:19.632Z,69.15
2023-05-22T06:33:51.506Z,68.50
2023-05-22T06:36:19.155Z,69.77
2023-05-22T06:38:51.754Z,69.23
2023-05-22T06:41:18.653Z,69.57
2023-05-22T06:43:46.376Z,68.76
2023-05-22T06:46:13.368Z,69.04
2023-05-22T06:48:41.059Z,68.23
2023-05-22T06:51:15.175Z,68.20
2023-05-22T06:53:49.826Z,67.90
2023-05-22T06:56:16.649Z,68.23
2023-05-22T06:58:43.196Z,68.60
2023-05-22T07:01:09.725Z,68.40
2023-05-22T07:03:36.900Z,68.28
2023-05-22T07:06:03.750Z,67.71
2023-05-22T07:08:30.758Z,68.07
2023-05-22T07:10:57.566Z,68.05
2023-05-22T07:13:35.427Z,68.38
2023-05-22T07:16:03.331Z,68.10
2023-05-22T07:18:30.110Z,68.74
2023-05-22T07:20:56.601Z,69.07
2023-05-22T07:23:24.414Z,68.51
2023-05-22T07:25:53.561Z,68.93
2023-05-22T07:28:20.232Z,68.90
2023-05-22T07:30:46.849Z,68.23
2023-05-22T07:33:14.335Z,68.39
2023-05-22T07:35:45.755Z,68.43
2023-05-22T07:38:12.563Z,68.51
2023-05-22T07:40:41.923Z,68.21
2023-05-22T07:43:11.670Z,67.64
2023-05-22T07:45:39.760Z,67.27
2023-05-22T07:48:06.749Z,66.90
2023-05-22T07:50:35.511Z,66.36
2023-05-22T07:53:06.601Z,65.68
2023-05-22T07:55:33.842Z,65.31
2023-05-22T07:58:06.940Z,65.64
2023-05-22T08:00:39.620Z,65.53
2023-05-22T08:03:07.934Z,65.88
2023-05-22T08:05:34.646Z,65.50
2023-05-22T08:08:06.259Z,65.70
2023-05-22T08:10:46.628Z,65.48
2023-05-22T08:13:15.839Z,65.63
2023-05-22T08:15:42.549Z,66.43
2023-05-22T08:18:09.283Z,65.64
2023-05-22T08:20:38.949Z,64.17
2023-05-22T08:23:05.923Z,64.52
2023-05-22T08:25:32.758Z,64.39
2023-05-22T08:27:59.354Z,64.46
2023-05-22T08:30:30.716Z,62.29
2023-05-22T08:33:01.977Z,63.25
2023-05-22T08:35:29.317Z,62.37
2023-05-22T08:38:00.533Z,62.10
2023-05-22T08:40:40.804Z,61.76
2023-05-22T08:43:12.893Z,62.23
2023-05-22T08:45:42.708Z,62.77
2023-05-22T08:48:11.719Z,61.63
2023-05-22T08:50:43.414Z,61.70
2023-05-22T08:53:12.640Z,61.25
2023-05-22T08:55:39.615Z,61.23
2023-05-22T08:58:06.577Z,60.59
2023-05-22T09:00:35.413Z,60.53
2023-05-22T09:03:02.668Z,61.08
2023-05-22T09:05:30.628Z,60.44
2023-05-22T09:08:00.515Z,59.31
2023-05-22T09:10:32.178Z,59.53
2023-05-22T09:13:01.875Z,59.44
2023-05-22T09:15:30.276Z,59.07
2023-05-22T09:17:57.010Z,58.96
2023-05-22T09:20:25.329Z,58.59
2023-05-22T09:22:52.728Z,58.85
2023-05-22T09:25:20.148Z,57.25
2023-05-22T09:27:50.671Z,59.05
2023-05-22T09:30:18.190Z,57.92
2023-05-22T09:32:46.948Z,57.86
2023-05-22T09:35:16.860Z,56.78
2023-05-22T09:37:45.275Z,56.68
2023-05-22T09:40:15.776Z,56.51
2023-05-22T09:42:47.341Z,57.02
2023-05-22T09:45:17.008Z,55.99
2023-05-22T09:47:48.746Z,54.75
2023-05-22T09:50:15.455Z,55.46
2023-05-22T09:52:44.794Z,55.31
2023-05-22T09:55:17.698Z,55.51
2023-05-22T09:57:48.225Z,54.56
2023-05-22T10:00:24.296Z,54.54
2023-05-22T10:02:54.083Z,54.30
2023-05-22T10:05:23.594Z,54.54
2023-05-22T10:07:55.328Z,53.01
2023-05-22T10:10:23.322Z,53.79
2023-05-22T10:12:49.876Z,53.46
2023-05-22T10:15:17.682Z,52.53
2023-05-22T10:17:47.754Z,52.67
2023-05-22T10:20:16.399Z,53.19
2023-05-22T10:22:51.020Z,51.48
2023-05-22T10:25:23.066Z,51.30
2023-05-22T10:27:52.247Z,50.97
2023-05-22T10:30:20.253Z,50.28
2023-05-22T10:32:50.440Z,50.07
2023-05-22T10:35:17.060Z,50.81
2023-05-22T10:37:51.535Z,51.27
2023-05-22T10:40:22.281Z,49.85
2023-05-22T10:42:50.154Z,49.37
2023-05-22T10:45:16.840Z,49.88
2023-05-22T10:47:46.104Z,48.56
2023-05-22T10:50:13.350Z,47.07
2023-05-22T10:52:40.578Z,46.69
2023-05-22T10:55:16.041Z,46.31
2023-05-22T10:57:43.142Z,46.98
2023-05-22T11:00:19.991Z,46.66
2023-05-22T11:02:51.582Z,47.02
2023-05-22T11:05:22.421Z,47.35
2023-05-22T11:07:49.297Z,47.56
2023-05-22T11:10:37.245Z,46.09
2023-05-22T11:13:17.914Z,45.60
2023-05-22T11:15:48.837Z,45.45
2023-05-22T11:18:16.986Z,45.58
2023-05-22T11:20:44.483Z,46.31
2023-05-22T11:23:11.418Z,45.71
2023-05-22T11:25:43.270Z,46.96
2023-05-22T11:28:11.660Z,46.15
2023-05-22T11:30:39.053Z,44.65
2023-05-22T11:33:06.875Z,44.61
2023-05-22T11:35:34.189Z,42.36
2023-05-22T11:38:03.841Z,42.63
2023-05-22T11:40:30.646Z,43.32
2023-05-22T11:42:57.362Z,43.03
2023-05-22T11:45:24.293Z,43.38
2023-05-22T11:47:51.204Z,42.14
2023-05-22T11:50:29.162Z,41.23
2023-05-22T11:53:09.457Z,41.89
2023-05-22T11:55:36.035Z,42.45
2023-05-22T11:58:03.053Z,41.49
2023-05-22T12:00:30.772Z,42.36
2023-05-22T12:03:00.606Z,41.11
2023-05-22T12:05:31.796Z,40.35
2023-05-22T12:08:00.636Z,39.56
2023-05-22T12:10:29.230Z,39.11
2023-05-22T12:12:56.567Z,39.76
2023-05-22T12:15:24.532Z,40.24
2023-05-22T12:17:56.310Z,38.95
2023-05-22T12:20:23.125Z,38.76
2023-05-22T12:22:49.818Z,39.10
2023-05-22T12:25:17.731Z,38.05
2023-05-22T12:27:45.740Z,38.20
2023-05-22T12:30:16.241Z,39.29
2023-05-22T12:32:50.371Z,39.57
2023-05-22T12:35:26.143Z,39.99
2023-05-22T12:37:52.924Z,39.16
2023-05-22T12:40:27.085Z,38.75
2023-05-22T12:42:54.192Z,38.74
2023-05-22T12:45:25.116Z,37.70
2023-05-22T12:47:54.251Z,36.87
2023-05-22T12:50:20.951Z,37.14
2023-05-22T12:52:47.709Z,34.88
2023-05-22T12:55:21.917Z,34.98
2023-05-22T12:57:49.331Z,35.53
2023-05-22T13:00:16.093Z,34.78
2023-05-22T13:02:50.679Z,35.26
2023-05-22T13:05:17.925Z,34.51
2023-05-22T13:07:47.070Z,33.07
2023-05-22T13:10:16.189Z,33.11
2023-05-22T13:12:44.833Z,32.41
2023-05-22T13:15:13.950Z,32.96
2023-05-22T13:17:40.711Z,34.19
2023-05-22T13:20:08.151Z,34.86
2023-05-22T13:22:37.045Z,34.10
2023-05-22T13:25:03.855Z,34.21
2023-05-22T13:27:34.030Z,33.78
2023-05-22T13:30:02.791Z,33.57
2023-05-22T13:32:29.463Z,33.36
2023-05-22T13:34:58.415Z,32.78
2023-05-22T13:37:27.901Z,32.00
2023-05-22T13:40:01.081Z,31.35
2023-05-22T13:42:28.428Z,31.85
2023-05-22T13:44:55.215Z,31.95
2023-05-22T13:47:23.216Z,32.06
2023-05-22T13:49:58.934Z,31.85
2023-05-22T13:52:26.573Z,31.64
2023-05-22T13:54:54.665Z,31.16
2023-05-22T13:57:21.185Z,31.54
2023-05-22T13:59:47.743Z,32.10
2023-05-22T14:02:14.392Z,33.17
2023-05-22T14:04:41.107Z,33.11
2023-05-22T14:07:07.674Z,33.86
2023-05-22T14:09:34.219Z,34.96
2023-05-22T14:12:00.818Z,34.45
2023-05-22T14:14:27.640Z,35.30
2023-05-22T14:16:56.394Z,35.47
2023-05-22T14:19:26.119Z,36.85
2023-05-22T14:21:57.904Z,35.89
2023-05-22T14:24:28.539Z,35.95
2023-05-22T14:26:58.122Z,36.95
2023-05-22T14:29:25.678Z,37.42
2023-05-22T14:31:55.079Z,37.37
2023-05-22T14:34:21.566Z,37.29
2023-05-22T14:36:48.518Z,38.01
2023-05-22T14:39:18.126Z,38.07
2023-05-22T14:41:44.837Z,37.94
2023-05-22T14:44:14.286Z,39.35
2023-05-22T14:46:44.019Z,38.71
2023-05-22T14:49:15.743Z,38.46
2023-05-22T14:51:48.207Z,37.84
2023-05-22T14:54:15.885Z,38.12
2023-05-22T14:56:48.681Z,37.82
2023-05-22T14:59:15.577Z,38.22
2023-05-22T15:01:42.200Z,39.05
2023-05-22T15:04:09.201Z,37.40
2023-05-22T15:06:36.377Z,37.73
2023-05-22T15:09:03.067Z,38.12
2023-05-22T15:11:29.762Z,39.48
2023-05-22T15:13:56.605Z,39.68
2023-05-22T15:16:27.787Z,39.83
2023-05-22T15:18:55.271Z,40.30
2023-05-22T15:21:22.580Z,40.51
2023-05-22T15:23:49.551Z,40.72
2023-05-22T15:26:16.425Z,40.38
2023-05-22T15:28:43.028Z,40.47
2023-05-22T15:31:09.878Z,40.93
2023-05-22T15:33:36.530Z,41.12
2023-05-22T15:36:06.115Z,40.62
2023-05-22T15:38:33.330Z,41.14
2023-05-22T15:40:59.893Z,40.76
2023-05-22T15:43:26.836Z,40.51
2023-05-22T15:45:53.706Z,40.68
2023-05-22T15:48:20.649Z,40.79
2023-05-22T15:50:47.280Z,40.86
2023-05-22T15:53:14.966Z,41.06
2023-05-22T15:55:41.939Z,40.55
2023-05-22T15:58:08.772Z,39.70
2023-05-22T16:00:38.732Z,38.84
2023-05-22T16:03:12.148Z,38.14
2023-05-22T16:05:40.185Z,36.38
2023-05-22T16:08:07.393Z,35.22
2023-05-22T16:10:34.112Z,34.91
2023-05-22T16:13:00.853Z,33.84
2023-05-22T16:15:27.395Z,33.03
2023-05-22T16:17:54.726Z,33.10
2023-05-22T16:20:22.614Z,33.81
2023-05-22T16:22:49.293Z,34.64
2023-05-22T16:25:16.852Z,35.46
2023-05-22T16:27:43.597Z,35.34
2023-05-22T16:30:16.458Z,35.52
2023-05-22T16:32:50.299Z,36.30
2023-05-22T16:35:17.033Z,36.46
2023-05-22T16:37:43.646Z,36.16
2023-05-22T16:40:10.418Z,37.22
2023-05-22T16:42:45.289Z,38.09
2023-05-22T16:45:12.012Z,38.64
2023-05-22T16:47:48.608Z,39.62
2023-05-22T16:50:15.180Z,38.86
2023-05-22T16:52:41.733Z,39.44
2023-05-22T16:55:08.664Z,40.31
2023-05-22T16:57:35.211Z,40.64
2023-05-22T17:02:53.029Z,40.72
2023-05-22T17:05:23.094Z,41.72
2023-05-22T17:07:49.789Z,41.42
2023-05-22T17:10:18.980Z,41.58
2023-05-22T17:12:46.275Z,41.40
2023-05-22T17:15:13.051Z,41.20
2023-05-22T17:17:39.925Z,41.51
2023-05-22T17:20:07.452Z,41.48
2023-05-22T17:22:36.088Z,41.85
2023-05-22T17:25:02.723Z,42.06
2023-05-22T17:27:36.482Z,42.13
2023-05-22T17:30:04.743Z,42.59
2023-05-22T17:32:31.526Z,42.89
2023-05-22T17:34:58.610Z,42.40
2023-05-22T17:37:25.203Z,42.86
2023-05-22T17:39:53.365Z,42.83
2023-05-22T17:42:20.080Z,43.09
2023-05-22T17:44:47.081Z,42.78
2023-05-22T17:47:17.840Z,43.29
2023-05-22T17:49:45.129Z,43.23
2023-05-22T17:52:13.431Z,42.81
2023-05-22T17:54:40.126Z,42.65
2023-05-22T17:57:06.785Z,42.31
2023-05-22T17:59:36.356Z,42.64
2023-05-22T18:02:04.729Z,42.81
2023-05-22T18:04:31.411Z,43.03
2023-05-22T18:06:58.131Z,43.55
2023-05-22T18:09:34.565Z,43.72
2023-05-22T18:12:03.942Z,43.42
2023-05-22T18:14:32.080Z,44.26
2023-05-22T18:17:00.847Z,44.63
2023-05-22T18:19:29.317Z,45.02
2023-05-22T18:21:56.354Z,45.63
2023-05-22T18:24:26.233Z,46.88
2023-05-22T18:26:53.005Z,47.82
2023-05-22T18:29:19.685Z,48.20
2023-05-22T18:31:46.318Z,49.06
2023-05-22T18:34:14.344Z,49.87
2023-05-22T18:36:47.795Z,50.23
2023-05-22T18:39:15.113Z,51.13
2023-05-22T18:41:43.860Z,51.03
2023-05-22T18:44:13.560Z,51.38
2023-05-22T18:46:50.960Z,51.99
2023-05-22T18:49:37.121Z,52.57
2023-05-22T18:52:22.225Z,53.41
2023-05-22T18:55:00.765Z,53.25
2023-05-22T18:57:31.886Z,53.98
2023-05-22T19:00:01.697Z,54.17
2023-05-22T19:02:39.701Z,55.09
2023-05-22T19:05:07.484Z,55.00
2023-05-22T19:07:40.230Z,55.36
2023-05-22T19:10:08.327Z,55.21
2023-05-22T19:12:35.389Z,56.32
2023-05-22T19:15:02.872Z,56.57
2023-05-22T19:17:48.175Z,57.50
2023-05-22T19:20:30.538Z,57.14
2023-05-22T19:23:23.677Z,57.72
2023-05-22T19:25:54.198Z,57.49
2023-05-22T19:28:28.351Z,58.03
2023-05-22T19:31:07.753Z,58.37
2023-05-22T19:33:34.541Z,58.60
2023-05-22T19:36:02.487Z,58.39
2023-05-22T19:38:43.417Z,58.46
2023-05-22T19:41:12.507Z,59.10
2023-05-22T19:43:51.781Z,59.29
2023-05-22T19:46:25.580Z,59.17
2023-05-22T19:48:52.626Z,59.63
2023-05-22T19:51:31.729Z,60.01
2023-05-22T19:54:01.989Z,60.00
2023-05-22T19:56:43.515Z,60.20
2023-05-22T19:59:12.735Z,60.75
2023-05-22T20:01:53.524Z,60.60
2023-05-22T20:04:24.206Z,60.83
2023-05-22T20:06:53.588Z,61.25
2023-05-22T20:09:21.382Z,61.68
2023-05-22T20:11:49.376Z,61.63
2023-05-22T20:14:16.352Z,62.11
2023-05-22T20:16:43.140Z,62.51
2023-05-22T20:19:10.502Z,62.33
2023-05-22T20:21:37.647Z,62.60
2023-05-22T20:24:06.326Z,62.83
2023-05-22T20:26:37.223Z,62.75
2023-05-22T20:29:04.143Z,62.75
2023-05-22T20:34:15.926Z,62.29
2023-05-22T20:36:47.919Z,62.63
2023-05-22T20:39:24.599Z,63.23
2023-05-22T20:41:54.921Z,63.63
2023-05-22T20:44:27.184Z,64.33
2023-05-22T20:47:05.926Z,64.50
2023-05-22T20:49:45.629Z,65.02
2023-05-22T20:52:17.989Z,64.62
2023-05-22T20:55:01.773Z,64.51
2023-05-22T20:57:31.503Z,65.08
2023-05-22T21:00:05.983Z,64.72
2023-05-22T21:02:33.406Z,64.64
2023-05-22T21:05:00.842Z,65.31
2023-05-22T21:07:30.389Z,65.58
2023-05-22T21:09:57.227Z,66.24
2023-05-22T21:12:23.852Z,65.62
2023-05-22T21:14:52.573Z,64.50
2023-05-22T21:17:19.237Z,64.00
2023-05-22T21:19:46.404Z,64.02
2023-05-22T21:22:12.954Z,65.14
2023-05-22T21:24:42.070Z,64.79
2023-05-22T21:27:09.262Z,64.43
2023-05-22T21:29:35.816Z,64.05
2023-05-22T21:32:02.438Z,64.90
2023-05-22T21:34:29.005Z,65.37
2023-05-22T21:36:57.230Z,65.33
2023-05-22T21:39:23.827Z,65.62
2023-05-22T21:41:50.438Z,65.86
2023-05-22T21:44:25.345Z,66.10
2023-05-22T21:46:51.881Z,65.84
2023-05-22T21:49:22.216Z,66.53
2023-05-22T21:51:51.200Z,65.04
2023-05-22T21:54:17.780Z,66.32
2023-05-22T21:56:44.318Z,65.64
2023-05-22T21:59:11.610Z,65.09
2023-05-22T22:01:39.224Z,65.16
2023-05-22T22:04:08.247Z,65.88
2023-05-22T22:06:42.551Z,66.22
2023-05-22T22:09:09.327Z,66.69
2023-05-22T22:11:46.765Z,66.48
2023-05-22T22:14:13.914Z,66.39
2023-05-22T22:16:40.785Z,66.83
2023-05-22T22:19:08.148Z,66.83
2023-05-22T22:21:35.103Z,67.18
2023-05-22T22:24:07.235Z,67.34
2023-05-22T22:26:36.905Z,67.71
2023-05-22T22:29:03.549Z,67.54
2023-05-22T22:31:36.694Z,67.04
2023-05-22T22:34:05.658Z,67.13
2023-05-22T22:36:35.647Z,67.36
2023-05-22T22:39:02.282Z,68.02
2023-05-22T22:41:30.528Z,68.17
2023-05-22T22:43:57.815Z,68.54
2023-05-22T22:46:24.771Z,68.65
2023-05-22T22:48:51.495Z,68.23
2023-05-22T22:51:18.745Z,68.50
2023-05-22T22:53:45.366Z,68.63
2023-05-22T22:56:12.588Z,69.01
2023-05-22T22:58:39.301Z,69.13
2023-05-22T23:01:09.846Z,69.15
2023-05-22T23:03:37.000Z,69.38
2023-05-22T23:06:03.724Z,69.29
2023-05-22T23:08:30.686Z,68.95
2023-05-22T23:11:01.251Z,68.94
2023-05-22T23:13:34.294Z,69.06
2023-05-22T23:16:01.051Z,69.10
2023-05-22T23:18:27.974Z,69.34
2023-05-22T23:20:54.626Z,69.37
2023-05-22T23:23:21.267Z,69.62
2023-05-22T23:25:48.082Z,69.76
2023-05-22T23:28:14.816Z,70.07
2023-05-22T23:30:41.396Z,70.09
2023-05-22T23:33:08.001Z,70.10
2023-05-22T23:35:34.661Z,70.24
2023-05-22T23:38:01.637Z,70.08
2023-05-22T23:40:31.333Z,69.94
2023-05-22T23:43:02.200Z,69.99
2023-05-22T23:45:28.799Z,69.84
2023-05-22T23:48:01.549Z,70.05
2023-05-22T23:50:28.176Z,69.74
2023-05-22T23:55:39.748Z,68.69
2023-05-22T23:58:06.554Z,69.84
